Time;durP1;ratioP1;P1;durP2;ratioP2;P2;SDS_P1;SDS_P2;PMS_P1;PMS_P2;Temp;Humidity;BMP_temperature;BMP_pressure;BME280_temperature;BME280_humidity;BME280_pressure;Samples;Min_cycle;Max_cycle;Signal;HPM_P1;HPM_P2
2023/12/31 00:01:35;;;;;;;2.57;1.87;;;;;;;;;;5057108;28;20179;-72
2023/12/31 00:04:01;;;;;;;2.17;1.50;;;;;;;;;;5057524;28;20285;-73
2023/12/31 00:06:27;;;;;;;3.33;1.70;;;;;;;;;;5057124;28;20292;-73
2023/12/31 00:08:53;;;;;;;2.17;1.63;;;;;;;;;;5039091;28;20178;-73
2023/12/31 00:11:19;;;;;;;3.53;2.07;;;;;;;;;;5039296;28;20185;-73
2023/12/31 00:13:45;;;;;;;2.00;1.70;;;;;;;;;;5057244;28;20550;-73
2023/12/31 00:16:15;;;;;;;3.93;2.73;;;;;;;;;;5057346;28;20198;-73
2023/12/31 00:18:41;;;;;;;7.33;5.73;;;;;;;;;;5057331;28;20197;-73
2023/12/31 00:21:07;;;;;;;5.27;3.17;;;;;;;;;;5057412;28;20183;-73
2023/12/31 00:23:33;;;;;;;4.23;2.37;;;;;;;;;;5039323;28;20240;-73
2023/12/31 00:25:59;;;;;;;4.57;2.20;;;;;;;;;;5057194;28;20194;-73
2023/12/31 00:28:25;;;;;;;5.73;3.70;;;;;;;;;;5057956;28;20637;-73
2023/12/31 00:30:51;;;;;;;4.10;2.30;;;;;;;;;;5039715;28;20190;-73
2023/12/31 00:33:17;;;;;;;4.47;2.33;;;;;;;;;;5056528;28;20185;-74
2023/12/31 00:35:43;;;;;;;2.17;1.97;;;;;;;;;;5038491;28;20202;-73
2023/12/31 00:38:09;;;;;;;3.33;2.10;;;;;;;;;;5056144;28;20182;-73
2023/12/31 00:40:35;;;;;;;3.33;2.27;;;;;;;;;;5038435;28;20201;-73
2023/12/31 00:43:01;;;;;;;4.73;2.90;;;;;;;;;;5039098;28;20206;-73
2023/12/31 00:45:27;;;;;;;3.37;2.40;;;;;;;;;;5038941;28;20248;-73
2023/12/31 00:47:53;;;;;;;3.70;2.50;;;;;;;;;;5038558;28;20186;-73
2023/12/31 00:50:20;;;;;;;3.67;3.27;;;;;;;;;;5056975;28;20174;-73
2023/12/31 00:52:45;;;;;;;7.37;2.80;;;;;;;;;;5056054;28;20637;-73
2023/12/31 00:55:11;;;;;;;5.67;2.63;;;;;;;;;;5056405;28;20264;-73
2023/12/31 00:57:37;;;;;;;5.17;2.40;;;;;;;;;;5056432;28;20375;-73
2023/12/31 01:00:05;;;;;;;6.13;2.40;;;;;;;;;;5055616;28;20555;-73
2023/12/31 01:02:31;;;;;;;2.13;1.90;;;;;;;;;;5056106;28;20202;-73
2023/12/31 01:04:57;;;;;;;4.60;2.67;;;;;;;;;;5056420;28;20323;-73
2023/12/31 01:07:23;;;;;;;3.33;2.47;;;;;;;;;;5038421;28;20281;-73
2023/12/31 01:09:49;;;;;;;7.00;4.87;;;;;;;;;;5056122;28;20339;-73
2023/12/31 01:12:15;;;;;;;4.33;2.80;;;;;;;;;;5056746;28;20174;-73
2023/12/31 01:14:41;;;;;;;13.87;7.43;;;;;;;;;;5056374;28;20201;-73
2023/12/31 01:17:08;;;;;;;5.90;3.70;;;;;;;;;;5056033;28;20197;-73
2023/12/31 01:19:34;;;;;;;23.63;14.10;;;;;;;;;;5056009;28;20175;-73
2023/12/31 01:22:00;;;;;;;6.57;4.57;;;;;;;;;;5038431;28;20594;-73
2023/12/31 01:24:26;;;;;;;10.10;5.10;;;;;;;;;;5037819;28;20198;-73
2023/12/31 01:26:52;;;;;;;7.50;3.03;;;;;;;;;;5055688;28;20181;-73
2023/12/31 01:29:18;;;;;;;6.53;3.07;;;;;;;;;;5055230;28;20181;-73
2023/12/31 01:31:44;;;;;;;4.13;3.07;;;;;;;;;;5037386;28;20592;-73
2023/12/31 01:34:10;;;;;;;3.90;2.93;;;;;;;;;;5055140;28;20178;-73
2023/12/31 01:36:36;;;;;;;3.83;2.90;;;;;;;;;;5055077;28;20185;-73
2023/12/31 01:39:02;;;;;;;7.90;3.53;;;;;;;;;;5055246;28;20684;-73
2023/12/31 01:41:29;;;;;;;4.50;3.53;;;;;;;;;;5055354;28;20193;-73
2023/12/31 01:44:02;;;;;;;5.13;3.50;;;;;;;;;;5037546;28;20584;-73
2023/12/31 01:46:29;;;;;;;7.20;4.50;;;;;;;;;;5055906;28;20218;-74
2023/12/31 01:48:58;;;;;;;8.07;4.37;;;;;;;;;;5038492;28;20663;-73
2023/12/31 01:51:24;;;;;;;7.33;4.93;;;;;;;;;;5057407;28;20171;-74
2023/12/31 01:53:50;;;;;;;7.97;4.23;;;;;;;;;;5065905;28;20535;-74
2023/12/31 01:56:17;;;;;;;5.13;3.90;;;;;;;;;;5065291;28;20205;-73
2023/12/31 01:58:43;;;;;;;4.73;3.70;;;;;;;;;;5066965;28;20182;-73
2023/12/31 02:01:10;;;;;;;6.50;3.70;;;;;;;;;;5045454;28;20556;-73
2023/12/31 02:03:36;;;;;;;6.00;3.40;;;;;;;;;;5054738;28;20202;-73
2023/12/31 02:06:02;;;;;;;5.87;3.57;;;;;;;;;;5054687;28;20763;-73
2023/12/31 02:08:28;;;;;;;4.77;3.30;;;;;;;;;;5036805;28;20277;-73
2023/12/31 02:10:54;;;;;;;5.20;3.27;;;;;;;;;;5036492;28;20201;-73
2023/12/31 02:13:20;;;;;;;3.67;2.87;;;;;;;;;;5036695;28;20182;-73
2023/12/31 02:15:46;;;;;;;3.83;3.40;;;;;;;;;;5054590;28;20198;-73
2023/12/31 02:18:12;;;;;;;4.63;3.30;;;;;;;;;;5054577;28;20268;-73
2023/12/31 02:20:38;;;;;;;5.27;2.60;;;;;;;;;;5036765;28;20190;-73
2023/12/31 02:23:05;;;;;;;5.20;2.97;;;;;;;;;;5054485;28;20205;-73
2023/12/31 02:25:34;;;;;;;3.80;2.80;;;;;;;;;;5036270;28;20578;-73
2023/12/31 02:27:59;;;;;;;3.63;3.00;;;;;;;;;;5054367;28;20174;-74
2023/12/31 02:30:26;;;;;;;3.13;2.70;;;;;;;;;;5054359;28;20614;-73
2023/12/31 02:32:52;;;;;;;3.23;2.77;;;;;;;;;;5054032;28;20177;-73
2023/12/31 02:35:18;;;;;;;3.37;2.63;;;;;;;;;;5036060;28;20202;-73
2023/12/31 02:37:44;;;;;;;4.67;3.23;;;;;;;;;;5053999;28;20661;-74
2023/12/31 02:40:10;;;;;;;3.00;2.70;;;;;;;;;;5054049;28;20174;-74
2023/12/31 02:42:36;;;;;;;3.87;2.60;;;;;;;;;;5036032;28;20212;-73
2023/12/31 02:45:02;;;;;;;2.53;2.33;;;;;;;;;;5053820;28;20238;-73
2023/12/31 02:47:28;;;;;;;4.53;2.57;;;;;;;;;;5053919;28;20178;-72
2023/12/31 02:49:54;;;;;;;3.87;2.80;;;;;;;;;;5050051;23;20289;-69
2023/12/31 02:52:20;;;;;;;5.10;3.10;;;;;;;;;;5017205;28;20239;-70
2023/12/31 02:54:46;;;;;;;3.33;2.60;;;;;;;;;;5017523;28;20183;-68
2023/12/31 02:57:12;;;;;;;2.67;2.40;;;;;;;;;;5021240;28;20183;-68
2023/12/31 02:59:38;;;;;;;3.57;2.60;;;;;;;;;;5029265;28;20211;-69
2023/12/31 03:02:04;;;;;;;3.63;2.80;;;;;;;;;;5028675;28;20180;-69
2023/12/31 03:04:30;;;;;;;3.50;2.73;;;;;;;;;;5027188;28;20180;-68
2023/12/31 03:06:56;;;;;;;3.53;2.33;;;;;;;;;;5018040;28;20230;-67
2023/12/31 03:09:22;;;;;;;2.70;2.30;;;;;;;;;;5016349;28;20613;-68
2023/12/31 03:11:49;;;;;;;8.53;3.37;;;;;;;;;;5017976;28;20239;-68
2023/12/31 03:14:15;;;;;;;4.97;2.37;;;;;;;;;;5015348;28;20186;-68
2023/12/31 03:16:44;;;;;;;3.63;2.57;;;;;;;;;;5016235;28;20214;-68
2023/12/31 03:19:11;;;;;;;2.43;2.23;;;;;;;;;;5014891;28;20183;-68
2023/12/31 03:21:37;;;;;;;3.10;2.53;;;;;;;;;;5015413;28;20184;-68
2023/12/31 03:24:04;;;;;;;5.00;2.20;;;;;;;;;;5020716;28;20203;-68
2023/12/31 03:26:30;;;;;;;3.10;2.40;;;;;;;;;;5019469;28;20551;-68
2023/12/31 03:28:55;;;;;;;2.40;2.20;;;;;;;;;;5019374;28;20176;-70
2023/12/31 03:31:22;;;;;;;2.57;2.37;;;;;;;;;;5019316;28;20743;-68
2023/12/31 03:33:48;;;;;;;2.77;2.33;;;;;;;;;;5019207;28;20187;-68
2023/12/31 03:36:13;;;;;;;3.53;2.50;;;;;;;;;;5019628;28;20193;-70
2023/12/31 03:38:39;;;;;;;2.87;2.57;;;;;;;;;;5018817;28;20180;-68
2023/12/31 03:41:05;;;;;;;3.40;2.43;;;;;;;;;;5018172;28;20200;-68
2023/12/31 03:43:31;;;;;;;4.13;2.90;;;;;;;;;;5017448;28;20215;-68
2023/12/31 03:45:59;;;;;;;4.93;2.73;;;;;;;;;;5017847;28;20184;-68
2023/12/31 03:48:25;;;;;;;6.07;2.33;;;;;;;;;;5016956;28;20175;-68
2023/12/31 03:50:51;;;;;;;3.90;2.53;;;;;;;;;;5017843;28;20238;-68
2023/12/31 03:53:17;;;;;;;3.13;2.50;;;;;;;;;;5016676;28;20219;-68
2023/12/31 03:55:43;;;;;;;7.40;2.70;;;;;;;;;;5017983;28;20183;-68
2023/12/31 03:58:09;;;;;;;3.50;2.70;;;;;;;;;;5018127;28;20193;-68
2023/12/31 04:00:35;;;;;;;6.57;3.40;;;;;;;;;;5018067;28;20211;-68
2023/12/31 04:03:01;;;;;;;4.33;2.80;;;;;;;;;;5016468;28;20207;-68
2023/12/31 04:05:27;;;;;;;4.77;2.57;;;;;;;;;;5016425;28;20229;-68
2023/12/31 04:07:53;;;;;;;4.57;2.80;;;;;;;;;;5017719;28;20642;-68
2023/12/31 04:10:19;;;;;;;3.90;2.60;;;;;;;;;;5024647;28;20206;-68
2023/12/31 04:12:45;;;;;;;3.87;2.70;;;;;;;;;;5027454;28;20184;-67
2023/12/31 04:15:11;;;;;;;3.17;2.63;;;;;;;;;;5029213;28;20699;-67
2023/12/31 04:17:37;;;;;;;3.00;2.60;;;;;;;;;;5017673;28;20180;-68
2023/12/31 04:20:03;;;;;;;3.30;2.60;;;;;;;;;;5017486;28;20291;-68
2023/12/31 04:22:29;;;;;;;6.07;2.90;;;;;;;;;;5018704;28;20207;-68
2023/12/31 04:24:55;;;;;;;4.33;2.73;;;;;;;;;;5017435;28;20577;-68
2023/12/31 04:27:21;;;;;;;4.23;2.80;;;;;;;;;;5018109;28;20297;-68
2023/12/31 04:29:47;;;;;;;3.60;2.70;;;;;;;;;;5018397;28;20670;-69
2023/12/31 04:32:13;;;;;;;3.00;2.50;;;;;;;;;;5018482;28;20210;-68
2023/12/31 04:34:39;;;;;;;3.20;2.80;;;;;;;;;;5018486;28;20176;-68
2023/12/31 04:37:05;;;;;;;3.87;2.80;;;;;;;;;;5017161;28;20257;-70
2023/12/31 04:39:31;;;;;;;4.70;2.80;;;;;;;;;;5017911;28;20192;-68
2023/12/31 04:41:57;;;;;;;3.63;2.40;;;;;;;;;;5017517;28;20180;-68
2023/12/31 04:44:22;;;;;;;3.87;2.80;;;;;;;;;;5018087;28;20282;-68
2023/12/31 04:46:48;;;;;;;5.97;2.67;;;;;;;;;;5017544;28;20203;-70
2023/12/31 04:49:15;;;;;;;4.40;2.80;;;;;;;;;;5016429;28;20180;-68
2023/12/31 04:51:41;;;;;;;3.20;2.60;;;;;;;;;;5017266;28;20223;-68
2023/12/31 04:54:07;;;;;;;3.23;2.63;;;;;;;;;;5017580;28;20187;-68
2023/12/31 04:56:33;;;;;;;5.10;2.97;;;;;;;;;;5015841;28;20191;-68
2023/12/31 04:58:59;;;;;;;3.43;2.57;;;;;;;;;;5015767;28;20183;-68
2023/12/31 05:01:32;;;;;;;3.87;3.03;;;;;;;;;;5015842;28;20395;-68
2023/12/31 05:03:58;;;;;;;4.60;2.93;;;;;;;;;;5017185;28;20203;-68
2023/12/31 05:06:24;;;;;;;8.57;4.03;;;;;;;;;;5017271;28;20175;-68
2023/12/31 05:08:50;;;;;;;8.23;3.63;;;;;;;;;;5016830;28;20254;-68
2023/12/31 05:11:16;;;;;;;4.97;3.20;;;;;;;;;;5017266;28;20202;-68
2023/12/31 05:13:42;;;;;;;3.03;2.70;;;;;;;;;;5016852;28;20594;-68
2023/12/31 05:16:13;;;;;;;4.70;2.60;;;;;;;;;;5016949;28;20650;-68
2023/12/31 05:18:39;;;;;;;3.60;2.77;;;;;;;;;;5015639;28;20561;-68
2023/12/31 05:21:05;;;;;;;3.00;2.47;;;;;;;;;;5015683;28;20211;-68
2023/12/31 05:23:31;;;;;;;2.93;2.50;;;;;;;;;;5016122;28;20210;-68
2023/12/31 05:25:57;;;;;;;3.57;2.77;;;;;;;;;;5016212;28;20179;-69
2023/12/31 05:28:23;;;;;;;4.37;2.77;;;;;;;;;;5015726;28;20203;-67
2023/12/31 05:30:49;;;;;;;4.27;2.63;;;;;;;;;;5017638;28;20279;-68
2023/12/31 05:33:16;;;;;;;2.63;2.00;;;;;;;;;;5017681;28;20673;-68
2023/12/31 05:35:42;;;;;;;4.77;2.73;;;;;;;;;;5016544;28;20546;-69
2023/12/31 05:38:08;;;;;;;5.00;2.50;;;;;;;;;;5017375;28;20191;-68
2023/12/31 05:40:34;;;;;;;5.97;2.87;;;;;;;;;;5016877;28;20737;-68
2023/12/31 05:42:59;;;;;;;3.53;2.33;;;;;;;;;;5015111;28;20246;-68
2023/12/31 05:45:25;;;;;;;3.97;2.60;;;;;;;;;;5016614;28;20176;-68
2023/12/31 05:47:51;;;;;;;2.60;2.40;;;;;;;;;;5016222;28;20215;-69
2023/12/31 05:50:17;;;;;;;2.20;2.00;;;;;;;;;;5016199;28;20223;-69
2023/12/31 05:52:44;;;;;;;6.80;2.77;;;;;;;;;;5015183;28;20179;-68
2023/12/31 05:55:10;;;;;;;4.40;2.43;;;;;;;;;;5016558;28;20590;-68
2023/12/31 05:57:36;;;;;;;4.67;2.30;;;;;;;;;;5015214;28;20184;-68
2023/12/31 06:00:05;;;;;;;2.43;2.23;;;;;;;;;;5016260;28;20706;-69
2023/12/31 06:02:31;;;;;;;3.00;2.23;;;;;;;;;;5015935;28;20689;-68
2023/12/31 06:04:57;;;;;;;4.00;2.40;;;;;;;;;;5014942;28;20198;-68
2023/12/31 06:07:23;;;;;;;2.83;2.33;;;;;;;;;;5015862;28;20674;-68
2023/12/31 06:09:49;;;;;;;3.90;2.50;;;;;;;;;;5014516;28;20666;-68
2023/12/31 06:12:15;;;;;;;3.87;2.50;;;;;;;;;;5015801;28;20550;-68
2023/12/31 06:14:41;;;;;;;2.77;2.47;;;;;;;;;;5015850;28;20179;-68
2023/12/31 06:17:07;;;;;;;3.67;2.60;;;;;;;;;;5014446;28;20179;-69
2023/12/31 06:19:33;;;;;;;3.23;2.30;;;;;;;;;;5014564;28;20677;-68
2023/12/31 06:21:59;;;;;;;4.07;2.37;;;;;;;;;;5015755;28;20637;-69
2023/12/31 06:24:25;;;;;;;2.60;2.40;;;;;;;;;;5014334;28;20211;-68
2023/12/31 06:26:52;;;;;;;3.93;2.03;;;;;;;;;;5015889;28;20634;-68
2023/12/31 06:29:18;;;;;;;2.30;2.10;;;;;;;;;;5025670;28;20179;-68
2023/12/31 06:31:43;;;;;;;2.67;2.43;;;;;;;;;;5032872;28;20263;-69
2023/12/31 06:34:09;;;;;;;4.20;2.80;;;;;;;;;;5033472;28;20180;-68
2023/12/31 06:36:35;;;;;;;3.60;2.70;;;;;;;;;;5020641;28;20179;-68
2023/12/31 06:39:01;;;;;;;3.47;2.57;;;;;;;;;;5014114;28;20194;-68
2023/12/31 06:41:27;;;;;;;2.40;2.20;;;;;;;;;;5015658;28;20184;-68
2023/12/31 06:43:53;;;;;;;4.10;2.77;;;;;;;;;;5015916;28;20200;-68
2023/12/31 06:46:19;;;;;;;3.17;2.30;;;;;;;;;;5014664;28;20172;-68
2023/12/31 06:48:45;;;;;;;3.70;2.50;;;;;;;;;;5016325;28;20657;-68
2023/12/31 06:51:11;;;;;;;3.13;2.43;;;;;;;;;;5015634;28;20215;-68
2023/12/31 06:53:38;;;;;;;2.70;2.47;;;;;;;;;;5015672;28;20176;-68
2023/12/31 06:56:04;;;;;;;3.10;2.50;;;;;;;;;;5015366;28;20179;-69
2023/12/31 06:58:30;;;;;;;2.87;2.30;;;;;;;;;;5021918;28;20186;-68
2023/12/31 07:00:57;;;;;;;2.47;2.27;;;;;;;;;;5039319;28;20195;-68
2023/12/31 07:03:23;;;;;;;4.90;2.73;;;;;;;;;;5037509;28;20217;-68
2023/12/31 07:05:48;;;;;;;2.47;2.27;;;;;;;;;;5024398;28;20176;-68
2023/12/31 07:08:15;;;;;;;2.67;2.47;;;;;;;;;;5019927;28;20237;-68
2023/12/31 07:10:41;;;;;;;2.10;1.90;;;;;;;;;;5019030;28;20211;-68
2023/12/31 07:13:07;;;;;;;2.40;2.20;;;;;;;;;;5019128;28;20179;-68
2023/12/31 07:15:34;;;;;;;3.40;2.70;;;;;;;;;;5020105;28;20180;-68
2023/12/31 07:18:00;;;;;;;3.00;2.47;;;;;;;;;;5019587;28;20187;-68
2023/12/31 07:20:26;;;;;;;2.47;2.23;;;;;;;;;;5017844;28;20203;-68
2023/12/31 07:22:53;;;;;;;2.87;2.53;;;;;;;;;;5027543;28;20263;-68
2023/12/31 07:25:19;;;;;;;3.60;2.70;;;;;;;;;;5034613;28;20198;-69
2023/12/31 07:27:45;;;;;;;3.40;2.40;;;;;;;;;;5035195;28;20239;-68
2023/12/31 07:30:11;;;;;;;4.33;2.97;;;;;;;;;;5036043;28;20192;-68
2023/12/31 07:32:38;;;;;;;3.10;2.50;;;;;;;;;;5035133;28;20203;-69
2023/12/31 07:35:04;;;;;;;3.23;2.73;;;;;;;;;;5034076;28;20190;-68
2023/12/31 07:37:30;;;;;;;4.53;2.60;;;;;;;;;;5034233;28;20218;-69
2023/12/31 07:39:57;;;;;;;3.17;2.67;;;;;;;;;;5034059;28;20223;-68
2023/12/31 07:42:23;;;;;;;2.93;2.40;;;;;;;;;;5031692;28;20199;-68
2023/12/31 07:44:49;;;;;;;2.90;2.40;;;;;;;;;;5032262;28;20654;-69
2023/12/31 07:47:16;;;;;;;4.00;2.33;;;;;;;;;;5031140;28;20545;-69
2023/12/31 07:49:42;;;;;;;4.23;3.00;;;;;;;;;;5033731;28;20219;-70
2023/12/31 07:52:08;;;;;;;3.50;2.47;;;;;;;;;;5030928;28;20180;-68
2023/12/31 07:54:34;;;;;;;2.50;2.30;;;;;;;;;;5034072;28;20195;-69
2023/12/31 07:57:00;;;;;;;4.23;3.10;;;;;;;;;;5033057;28;20197;-69
2023/12/31 07:59:27;;;;;;;3.63;2.67;;;;;;;;;;5031072;28;20204;-69
2023/12/31 08:01:53;;;;;;;2.43;2.10;;;;;;;;;;5031959;28;20180;-69
2023/12/31 08:04:19;;;;;;;2.60;2.40;;;;;;;;;;5030586;28;20294;-70
2023/12/31 08:06:45;;;;;;;2.27;2.07;;;;;;;;;;5030358;28;20175;-68
2023/12/31 08:09:11;;;;;;;2.83;2.37;;;;;;;;;;5030551;28;20530;-68
2023/12/31 08:11:37;;;;;;;2.97;2.43;;;;;;;;;;5029857;28;20190;-69
2023/12/31 08:14:03;;;;;;;2.30;2.10;;;;;;;;;;5031476;28;20203;-69
2023/12/31 08:16:29;;;;;;;2.73;2.17;;;;;;;;;;5030273;28;20184;-68
2023/12/31 08:18:55;;;;;;;4.83;2.90;;;;;;;;;;5022512;28;20191;-69
2023/12/31 08:21:21;;;;;;;2.57;2.37;;;;;;;;;;5018924;28;20207;-69
2023/12/31 08:23:47;;;;;;;4.97;2.83;;;;;;;;;;5017421;28;20207;-69
2023/12/31 08:26:13;;;;;;;5.23;3.00;;;;;;;;;;5020327;28;20172;-68
2023/12/31 08:28:40;;;;;;;3.33;2.30;;;;;;;;;;5026567;28;20176;-69
2023/12/31 08:31:06;;;;;;;2.83;2.17;;;;;;;;;;5035299;28;20192;-68
2023/12/31 08:33:32;;;;;;;3.10;2.67;;;;;;;;;;5033869;28;20188;-69
2023/12/31 08:35:58;;;;;;;4.13;2.63;;;;;;;;;;5031543;28;20772;-69
2023/12/31 08:38:23;;;;;;;3.73;2.80;;;;;;;;;;5018122;28;20553;-69
2023/12/31 08:40:49;;;;;;;4.70;3.00;;;;;;;;;;5018443;28;20556;-68
2023/12/31 08:43:18;;;;;;;4.90;3.37;;;;;;;;;;5018349;28;20231;-68
2023/12/31 08:45:46;;;;;;;5.87;2.97;;;;;;;;;;5018135;28;20172;-68
2023/12/31 08:48:12;;;;;;;4.30;3.30;;;;;;;;;;5017801;28;20200;-68
2023/12/31 08:50:38;;;;;;;2.90;2.60;;;;;;;;;;5017037;28;20218;-68
2023/12/31 08:53:04;;;;;;;3.83;2.80;;;;;;;;;;5017126;28;20180;-69
2023/12/31 08:55:30;;;;;;;3.57;2.97;;;;;;;;;;5015925;28;20190;-68
2023/12/31 08:57:56;;;;;;;2.73;2.47;;;;;;;;;;5016044;28;20238;-68
2023/12/31 09:00:22;;;;;;;4.80;2.57;;;;;;;;;;5017611;28;20208;-68
2023/12/31 09:02:48;;;;;;;4.10;2.80;;;;;;;;;;5017126;28;20289;-68
2023/12/31 09:05:14;;;;;;;4.47;2.80;;;;;;;;;;5024054;28;20186;-68
2023/12/31 09:07:41;;;;;;;2.77;2.50;;;;;;;;;;5026945;28;20194;-69
2023/12/31 09:10:07;;;;;;;3.20;2.83;;;;;;;;;;5026900;28;20196;-68
2023/12/31 09:12:33;;;;;;;2.50;2.30;;;;;;;;;;5024192;28;20176;-69
2023/12/31 09:14:59;;;;;;;3.00;2.50;;;;;;;;;;5016767;28;20208;-68
2023/12/31 09:17:25;;;;;;;3.30;2.27;;;;;;;;;;5017940;28;20191;-68
2023/12/31 09:19:51;;;;;;;2.90;2.63;;;;;;;;;;5017614;28;20196;-68
2023/12/31 09:22:17;;;;;;;3.07;2.60;;;;;;;;;;5016833;28;20198;-68
2023/12/31 09:24:43;;;;;;;3.77;2.80;;;;;;;;;;5017648;28;20184;-68
2023/12/31 09:27:09;;;;;;;3.30;2.70;;;;;;;;;;5016950;28;20183;-68
2023/12/31 09:29:36;;;;;;;3.70;2.73;;;;;;;;;;5016076;28;20208;-68
2023/12/31 09:32:02;;;;;;;4.10;2.70;;;;;;;;;;5015709;28;20206;-68
2023/12/31 09:34:28;;;;;;;4.50;2.50;;;;;;;;;;5015753;28;20256;-69
2023/12/31 09:36:54;;;;;;;3.83;2.77;;;;;;;;;;5017193;28;20176;-69
2023/12/31 09:39:20;;;;;;;2.50;2.27;;;;;;;;;;5015842;28;20206;-68
2023/12/31 09:41:49;;;;;;;3.47;2.57;;;;;;;;;;5015887;28;20184;-68
2023/12/31 09:44:18;;;;;;;3.20;2.67;;;;;;;;;;5017035;28;20642;-68
2023/12/31 09:46:47;;;;;;;3.13;2.80;;;;;;;;;;5016549;28;20187;-68
2023/12/31 09:49:13;;;;;;;3.23;2.73;;;;;;;;;;5021523;28;20160;-68
2023/12/31 09:51:40;;;;;;;4.63;2.70;;;;;;;;;;5036898;28;20182;-68
2023/12/31 09:54:06;;;;;;;4.73;2.90;;;;;;;;;;5036633;28;20187;-69
2023/12/31 09:56:32;;;;;;;5.60;3.10;;;;;;;;;;5016335;28;20191;-68
2023/12/31 09:58:59;;;;;;;5.83;3.17;;;;;;;;;;5017304;28;20628;-68
2023/12/31 10:01:25;;;;;;;4.57;3.53;;;;;;;;;;5015419;28;20274;-68
2023/12/31 10:03:51;;;;;;;4.03;3.20;;;;;;;;;;5016926;28;20215;-68
2023/12/31 10:06:17;;;;;;;5.47;3.67;;;;;;;;;;5015781;28;20175;-67
2023/12/31 10:08:43;;;;;;;6.40;4.20;;;;;;;;;;5016587;28;20558;-68
2023/12/31 10:11:10;;;;;;;5.43;3.63;;;;;;;;;;5016985;28;20188;-68
2023/12/31 10:13:36;;;;;;;7.30;4.67;;;;;;;;;;5019972;28;20184;-68
2023/12/31 10:16:15;;;;;;;8.07;4.73;;;;;;;;;;5037165;28;20210;-69
2023/12/31 10:18:41;;;;;;;7.63;4.10;;;;;;;;;;5034738;28;20191;-68
2023/12/31 10:21:09;;;;;;;7.37;4.33;;;;;;;;;;5032278;28;20666;-68
2023/12/31 10:23:35;;;;;;;4.57;3.20;;;;;;;;;;5016233;28;20290;-69
2023/12/31 10:26:01;;;;;;;4.97;3.30;;;;;;;;;;5015986;28;20266;-69
2023/12/31 10:28:30;;;;;;;3.50;3.20;;;;;;;;;;5015737;28;20180;-68
2023/12/31 10:30:56;;;;;;;5.03;3.37;;;;;;;;;;5016124;28;20207;-69
2023/12/31 10:33:28;;;;;;;3.03;2.43;;;;;;;;;;5013538;28;20184;-69
2023/12/31 10:36:06;;;;;;;4.43;2.43;;;;;;;;;;5015950;28;20673;-68
2023/12/31 10:39:01;;;;;;;3.30;2.33;;;;;;;;;;5015792;28;20184;-68
2023/12/31 10:41:27;;;;;;;3.27;2.80;;;;;;;;;;5007291;28;20266;-68
2023/12/31 10:43:55;;;;;;;2.50;2.03;;;;;;;;;;5014293;28;20210;-68
2023/12/31 10:46:23;;;;;;;2.00;1.80;;;;;;;;;;5015051;28;20234;-70
2023/12/31 10:48:59;;;;;;;2.47;2.20;;;;;;;;;;5015841;28;20180;-69
2023/12/31 10:51:26;;;;;;;2.33;2.03;;;;;;;;;;5016890;28;20273;-69
2023/12/31 10:53:54;;;;;;;2.97;2.13;;;;;;;;;;5014535;28;20187;-68
2023/12/31 10:56:24;;;;;;;1.73;1.50;;;;;;;;;;5017594;28;20188;-69
2023/12/31 10:58:51;;;;;;;2.33;1.80;;;;;;;;;;5015472;28;20180;-69
2023/12/31 11:01:17;;;;;;;3.10;1.40;;;;;;;;;;5014828;28;20210;-69
2023/12/31 11:03:44;;;;;;;2.10;1.40;;;;;;;;;;5017897;28;20206;-69
2023/12/31 11:06:11;;;;;;;1.80;1.50;;;;;;;;;;5035525;28;20163;-69
2023/12/31 11:08:37;;;;;;;2.73;1.60;;;;;;;;;;5034861;28;20163;-69
2023/12/31 11:11:03;;;;;;;1.40;1.30;;;;;;;;;;5034992;28;20227;-69
2023/12/31 11:13:29;;;;;;;2.33;1.50;;;;;;;;;;5035091;28;20191;-68
2023/12/31 11:15:56;;;;;;;1.20;1.10;;;;;;;;;;5034240;28;20210;-69
2023/12/31 11:18:22;;;;;;;1.20;1.03;;;;;;;;;;5034104;28;20211;-69
2023/12/31 11:21:11;;;;;;;2.87;1.43;;;;;;;;;;5033575;28;20208;-69
2023/12/31 11:23:56;;;;;;;1.20;1.10;;;;;;;;;;5034417;28;20195;-69
2023/12/31 11:26:24;;;;;;;2.07;1.40;;;;;;;;;;5034420;28;20180;-69
2023/12/31 11:28:50;;;;;;;1.60;1.00;;;;;;;;;;5034280;28;20202;-69
2023/12/31 11:31:16;;;;;;;2.90;1.60;;;;;;;;;;5020568;28;20229;-68
2023/12/31 11:33:42;;;;;;;1.30;1.20;;;;;;;;;;5017481;28;20188;-68
2023/12/31 11:36:12;;;;;;;1.90;1.10;;;;;;;;;;5016308;28;20184;-68
2023/12/31 11:38:53;;;;;;;13.10;7.03;;;;;;;;;;5016959;28;20175;-69
2023/12/31 11:41:19;;;;;;;58.20;21.70;;;;;;;;;;5017432;28;20611;-70
2023/12/31 11:43:45;;;;;;;8.60;4.10;;;;;;;;;;5019121;28;20259;-69
2023/12/31 11:46:30;;;;;;;16.10;7.40;;;;;;;;;;5020347;28;20172;-69
2023/12/31 11:48:57;;;;;;;32.33;16.67;;;;;;;;;;5020507;28;20183;-69
2023/12/31 11:51:23;;;;;;;14.80;11.17;;;;;;;;;;5019324;28;20226;-69
2023/12/31 11:53:50;;;;;;;31.00;24.10;;;;;;;;;;5021172;28;20176;-70
2023/12/31 11:56:17;;;;;;;4.90;3.77;;;;;;;;;;5021423;28;20191;-70
2023/12/31 11:58:43;;;;;;;3.47;2.70;;;;;;;;;;5019312;28;20187;-68
2023/12/31 12:01:12;;;;;;;3.43;2.47;;;;;;;;;;5019520;28;20204;-71
2023/12/31 12:03:39;;;;;;;11.57;10.00;;;;;;;;;;5021071;28;20608;-69
2023/12/31 12:06:05;;;;;;;2.77;2.03;;;;;;;;;;5020299;28;20222;-71
2023/12/31 12:08:32;;;;;;;2.27;1.60;;;;;;;;;;5020840;28;20167;-68
2023/12/31 12:10:58;;;;;;;6.60;4.93;;;;;;;;;;5017947;28;20191;-68
2023/12/31 12:13:26;;;;;;;6.93;6.23;;;;;;;;;;5018154;28;20190;-69
2023/12/31 12:15:52;;;;;;;5.20;3.87;;;;;;;;;;5019828;28;20772;-68
2023/12/31 12:18:19;;;;;;;6.00;3.63;;;;;;;;;;5018467;28;20262;-67
2023/12/31 12:20:48;;;;;;;4.03;2.53;;;;;;;;;;5019431;28;20207;-69
2023/12/31 12:23:21;;;;;;;21.00;17.10;;;;;;;;;;5017465;28;20258;-69
2023/12/31 12:25:48;;;;;;;7.57;4.90;;;;;;;;;;5018867;28;20187;-69
2023/12/31 12:28:14;;;;;;;1.40;1.23;;;;;;;;;;5018054;28;20253;-68
2023/12/31 12:30:41;;;;;;;2.70;1.90;;;;;;;;;;5020098;28;20211;-68
2023/12/31 12:33:07;;;;;;;1.60;1.10;;;;;;;;;;5017833;28;20184;-68
2023/12/31 12:35:36;;;;;;;2.30;1.30;;;;;;;;;;5019697;28;20267;-69
2023/12/31 12:38:02;;;;;;;1.30;1.20;;;;;;;;;;5018356;28;20191;-69
2023/12/31 12:40:29;;;;;;;1.37;1.17;;;;;;;;;;5020994;28;20279;-68
2023/12/31 12:42:55;;;;;;;2.20;1.07;;;;;;;;;;5021255;28;20298;-69
2023/12/31 12:45:23;;;;;;;2.27;1.30;;;;;;;;;;5031855;28;20183;-70
2023/12/31 12:47:49;;;;;;;1.17;1.10;;;;;;;;;;5034974;28;20184;-70
2023/12/31 12:50:15;;;;;;;1.27;1.03;;;;;;;;;;5032033;28;20219;-69
2023/12/31 12:52:41;;;;;;;1.87;1.20;;;;;;;;;;5023183;28;20183;-69
2023/12/31 12:55:07;;;;;;;1.30;1.20;;;;;;;;;;5022386;28;20588;-71
2023/12/31 12:57:33;;;;;;;7.43;2.47;;;;;;;;;;5019252;28;20179;-69
2023/12/31 12:59:59;;;;;;;1.80;1.10;;;;;;;;;;5018720;28;20208;-69
2023/12/31 13:02:25;;;;;;;1.70;1.10;;;;;;;;;;5017886;28;20562;-69
2023/12/31 13:04:53;;;;;;;4.77;1.97;;;;;;;;;;5017950;28;20728;-69
2023/12/31 13:07:19;;;;;;;7.20;3.50;;;;;;;;;;5016990;28;20233;-69
2023/12/31 13:09:45;;;;;;;11.40;4.70;;;;;;;;;;5018181;28;20215;-69
2023/12/31 13:12:10;;;;;;;6.63;2.13;;;;;;;;;;5017980;28;20612;-68
2023/12/31 13:14:37;;;;;;;5.07;2.20;;;;;;;;;;5017899;28;20192;-69
2023/12/31 13:17:03;;;;;;;10.43;5.27;;;;;;;;;;5016409;28;20234;-69
2023/12/31 13:19:29;;;;;;;61.53;35.30;;;;;;;;;;5017417;28;20713;-69
2023/12/31 13:21:55;;;;;;;7.30;2.20;;;;;;;;;;5017922;28;20184;-69
2023/12/31 13:24:21;;;;;;;15.93;7.13;;;;;;;;;;5018024;28;20199;-69
2023/12/31 13:26:48;;;;;;;6.33;2.03;;;;;;;;;;5017204;28;20179;-69
2023/12/31 13:29:14;;;;;;;4.77;1.70;;;;;;;;;;5015436;28;20184;-69
2023/12/31 13:31:40;;;;;;;2.97;1.40;;;;;;;;;;5017014;28;20600;-69
2023/12/31 13:34:07;;;;;;;4.33;2.13;;;;;;;;;;5017203;28;20242;-69
2023/12/31 13:36:33;;;;;;;5.00;1.57;;;;;;;;;;5015702;28;20187;-70
2023/12/31 13:38:59;;;;;;;2.57;1.80;;;;;;;;;;5016881;28;20210;-70
2023/12/31 13:41:27;;;;;;;4.60;1.53;;;;;;;;;;5017673;28;20184;-70
2023/12/31 13:43:53;;;;;;;3.17;1.30;;;;;;;;;;5016555;28;20210;-69
2023/12/31 13:46:19;;;;;;;1.80;1.40;;;;;;;;;;5016415;28;20180;-69
2023/12/31 13:48:45;;;;;;;3.10;1.43;;;;;;;;;;5017151;28;20176;-70
2023/12/31 13:51:11;;;;;;;1.20;1.10;;;;;;;;;;5016450;28;20250;-69
2023/12/31 13:53:37;;;;;;;5.20;1.60;;;;;;;;;;5017607;28;20184;-70
2023/12/31 13:56:04;;;;;;;2.47;1.20;;;;;;;;;;5020132;28;20235;-70
2023/12/31 13:58:30;;;;;;;6.87;4.87;;;;;;;;;;5029738;28;20184;-70
2023/12/31 14:00:56;;;;;;;8.87;2.27;;;;;;;;;;5035070;28;20204;-69
2023/12/31 14:03:22;;;;;;;3.47;1.40;;;;;;;;;;5034921;28;20210;-70
2023/12/31 14:05:49;;;;;;;4.63;1.30;;;;;;;;;;5024090;28;20176;-69
2023/12/31 14:08:15;;;;;;;4.00;1.53;;;;;;;;;;5016857;28;20194;-69
2023/12/31 14:10:41;;;;;;;5.93;1.70;;;;;;;;;;5016109;28;20678;-69
2023/12/31 14:13:07;;;;;;;4.97;2.03;;;;;;;;;;5015855;28;20184;-69
2023/12/31 14:15:34;;;;;;;3.27;1.50;;;;;;;;;;5016261;28;20190;-69
2023/12/31 14:18:00;;;;;;;5.37;1.70;;;;;;;;;;5017511;28;20199;-69
2023/12/31 14:20:26;;;;;;;5.10;1.90;;;;;;;;;;5017687;28;20199;-69
2023/12/31 14:22:52;;;;;;;7.60;3.57;;;;;;;;;;5017505;28;20628;-69
2023/12/31 14:25:18;;;;;;;5.33;2.50;;;;;;;;;;5016071;28;20180;-69
2023/12/31 14:27:45;;;;;;;6.67;2.07;;;;;;;;;;5017285;28;20199;-69
2023/12/31 14:30:11;;;;;;;13.80;6.70;;;;;;;;;;5015923;28;20345;-69
2023/12/31 14:32:37;;;;;;;36.20;18.87;;;;;;;;;;5015181;28;20186;-70
2023/12/31 14:35:05;;;;;;;11.67;5.17;;;;;;;;;;5016617;28;20258;-69
2023/12/31 14:37:31;;;;;;;9.83;6.13;;;;;;;;;;5015259;28;20654;-69
2023/12/31 14:39:57;;;;;;;9.07;4.70;;;;;;;;;;5015567;28;20211;-69